Time;durP1;ratioP1;P1;durP2;ratioP2;P2;SDS_P1;SDS_P2;PMS_P1;PMS_P2;Temp;Humidity;BMP_temperature;BMP_pressure;BME280_temperature;BME280_humidity;BME280_pressure;Samples;Min_cycle;Max_cycle;Signal;HPM_P1;HPM_P2
2022/10/13 00:01:15;;;;;;;4.93;3.70;;;15.30;71.00;;;;;;4988974;28;20035;-73
2022/10/13 00:03:45;;;;;;;3.40;3.10;;;15.30;71.10;;;;;;4982525;28;20039;-73
2022/10/13 00:06:21;;;;;;;4.47;4.00;;;15.30;71.00;;;;;;4990404;28;20061;-73
2022/10/13 00:08:47;;;;;;;3.83;3.50;;;15.30;71.60;;;;;;4988987;28;20275;-74
2022/10/13 00:11:15;;;;;;;3.50;3.10;;;15.30;71.10;;;;;;4993575;28;20486;-74
2022/10/13 00:13:42;;;;;;;4.05;3.63;;;15.30;71.20;;;;;;4985736;28;20041;-73
2022/10/13 00:16:09;;;;;;;4.72;3.97;;;15.30;71.20;;;;;;4988093;28;20023;-73
2022/10/13 00:18:35;;;;;;;3.97;3.67;;;15.20;71.10;;;;;;4987489;28;20026;-74
2022/10/13 00:21:07;;;;;;;5.30;3.83;;;15.30;71.30;;;;;;4983300;28;20099;-74
2022/10/13 00:23:33;;;;;;;4.70;3.58;;;15.20;71.20;;;;;;4983036;28;20061;-75
2022/10/13 00:26:06;;;;;;;4.90;3.60;;;15.20;71.20;;;;;;4989389;28;20032;-74
2022/10/13 00:28:32;;;;;;;5.60;4.55;;;15.30;71.40;;;;;;4988335;28;20037;-74
2022/10/13 00:30:58;;;;;;;4.38;3.97;;;15.30;71.40;;;;;;4989412;28;20058;-73
2022/10/13 00:33:24;;;;;;;4.35;3.95;;;15.20;71.30;;;;;;4988839;28;20034;-73
2022/10/13 00:35:51;;;;;;;5.68;4.65;;;15.30;71.40;;;;;;4987406;28;20242;-74
2022/10/13 00:38:18;;;;;;;4.57;4.05;;;15.20;71.30;;;;;;4991602;28;20030;-74
2022/10/13 00:40:52;;;;;;;5.68;4.57;;;15.20;71.30;;;;;;4988883;28;20494;-74
2022/10/13 00:43:21;;;;;;;4.07;3.67;;;15.20;71.40;;;;;;4987547;28;20038;-74
2022/10/13 00:45:50;;;;;;;4.50;4.18;;;15.20;71.30;;;;;;4984464;28;20026;-73
2022/10/13 00:48:20;;;;;;;4.20;3.80;;;15.20;71.40;;;;;;5002328;28;20035;-73
2022/10/13 00:50:47;;;;;;;4.10;3.72;;;15.20;71.40;;;;;;4983320;28;20030;-73
2022/10/13 00:53:15;;;;;;;4.60;4.07;;;15.20;71.40;;;;;;4988790;28;20482;-75
2022/10/13 00:55:43;;;;;;;4.15;3.75;;;15.20;71.50;;;;;;4988534;28;20034;-74
2022/10/13 00:58:14;;;;;;;4.60;4.18;;;15.10;71.30;;;;;;4987634;28;20026;-72
2022/10/13 01:00:45;;;;;;;3.97;3.55;;;15.10;71.40;;;;;;4986849;28;20113;-74
2022/10/13 01:03:14;;;;;;;4.88;3.90;;;15.10;71.40;;;;;;4987295;28;20053;-74
2022/10/13 01:05:41;;;;;;;3.72;3.42;;;15.10;71.50;;;;;;4988318;28;20027;-74
2022/10/13 01:08:11;;;;;;;4.57;3.95;;;15.10;71.50;;;;;;4982958;28;20034;-72
2022/10/13 01:11:11;;;;;;;3.78;3.47;;;15.10;71.60;;;;;;4986241;28;20031;-73
2022/10/13 01:14:09;;;;;;;3.85;3.55;;;15.10;71.70;;;;;;4982167;28;20030;-73
2022/10/13 01:16:56;;;;;;;5.57;3.20;;;15.10;71.70;;;;;;4972246;28;20732;-72
2022/10/13 01:20:15;;;;;;;4.32;3.42;;;15.10;71.60;;;;;;4981349;28;20033;-73
2022/10/13 01:22:44;;;;;;;5.70;3.42;;;15.10;71.70;;;;;;4967583;28;20042;-72
2022/10/13 01:25:45;;;;;;;6.03;3.72;;;15.10;71.60;;;;;;4986889;28;20041;-73
2022/10/13 01:28:44;;;;;;;4.43;3.65;;;15.10;71.70;;;;;;4975841;28;20053;-73
2022/10/13 01:31:25;;;;;;;3.67;3.30;;;15.10;71.70;;;;;;4963370;28;20107;-72
2022/10/13 01:34:05;;;;;;;5.32;3.92;;;15.00;71.60;;;;;;4978766;28;20251;-74
2022/10/13 01:37:03;;;;;;;4.10;3.70;;;15.00;71.60;;;;;;4987236;28;20080;-72
2022/10/13 01:39:43;;;;;;;5.75;3.17;;;15.00;71.70;;;;;;4991663;28;20034;-72
2022/10/13 01:42:33;;;;;;;3.80;3.50;;;15.00;71.70;;;;;;4978428;28;20034;-72
2022/10/13 01:45:03;;;;;;;4.25;3.20;;;15.00;71.80;;;;;;4980945;28;20365;-73
2022/10/13 01:47:32;;;;;;;4.00;3.63;;;14.90;71.60;;;;;;4987698;28;20034;-74
2022/10/13 01:50:00;;;;;;;3.35;3.05;;;14.90;71.60;;;;;;4990003;28;20135;-74
2022/10/13 01:52:34;;;;;;;4.57;3.67;;;14.90;71.70;;;;;;4984612;28;20035;-73
2022/10/13 01:55:05;;;;;;;3.45;3.13;;;14.90;71.70;;;;;;4987791;28;20397;-73
2022/10/13 01:57:34;;;;;;;3.53;3.20;;;14.90;71.80;;;;;;4974895;28;20064;-73
2022/10/13 02:00:06;;;;;;;7.75;5.13;;;14.80;71.60;;;;;;4993084;28;20056;-74
2022/10/13 02:02:58;;;;;;;3.30;3.00;;;14.80;71.70;;;;;;4988687;28;20041;-72
2022/10/13 02:05:48;;;;;;;3.38;2.92;;;14.70;71.60;;;;;;4992109;28;20038;-72
2022/10/13 02:08:45;;;;;;;3.70;2.83;;;14.70;71.60;;;;;;4987970;28;20048;-72
2022/10/13 02:11:20;;;;;;;5.20;3.00;;;14.70;71.60;;;;;;4988709;28;20049;-73
2022/10/13 02:14:10;;;;;;;3.38;2.70;;;14.60;71.50;;;;;;4988813;28;20092;-73
2022/10/13 02:16:42;;;;;;;3.28;2.97;;;14.60;71.60;;;;;;4984045;28;20030;-72
2022/10/13 02:19:14;;;;;;;4.15;3.75;;;14.50;71.50;;;;;;4985527;28;20034;-73
2022/10/13 02:21:43;;;;;;;3.50;3.20;;;14.50;71.50;;;;;;4987221;28;20037;-74
2022/10/13 02:24:11;;;;;;;4.97;3.33;;;14.40;71.40;;;;;;4988481;28;20056;-72
2022/10/13 02:26:37;;;;;;;5.95;3.10;;;14.40;71.40;;;;;;4980210;28;20030;-72
2022/10/13 02:29:15;;;;;;;5.72;3.70;;;14.40;71.50;;;;;;4990578;28;20386;-72
2022/10/13 02:31:43;;;;;;;3.78;2.78;;;14.30;71.40;;;;;;4988164;28;20093;-73
2022/10/13 02:34:11;;;;;;;3.40;3.10;;;14.30;71.40;;;;;;4984746;28;20367;-72
2022/10/13 02:36:38;;;;;;;3.95;3.65;;;14.30;71.40;;;;;;4990684;28;20441;-73
2022/10/13 02:39:05;;;;;;;3.80;2.67;;;14.20;71.30;;;;;;4989495;28;20034;-73
2022/10/13 02:41:31;;;;;;;3.50;3.20;;;14.20;71.40;;;;;;4987944;28;20466;-73
2022/10/13 02:43:57;;;;;;;3.20;2.90;;;14.10;71.20;;;;;;4991118;28;20058;-72
2022/10/13 02:46:29;;;;;;;3.10;2.78;;;14.10;71.20;;;;;;4987987;28;20030;-74
2022/10/13 02:48:55;;;;;;;3.58;2.40;;;14.10;71.80;;;;;;4988182;28;20534;-71
2022/10/13 02:51:25;;;;;;;3.38;2.70;;;14.00;71.10;;;;;;4991018;28;20018;-72
2022/10/13 02:53:51;;;;;;;5.30;3.05;;;14.00;71.10;;;;;;4973315;28;20031;-74
2022/10/13 02:56:18;;;;;;;2.58;2.20;;;14.00;71.20;;;;;;4989305;28;20041;-72
2022/10/13 02:58:43;;;;;;;3.30;2.10;;;13.90;71.10;;;;;;4997617;28;20040;-72
2022/10/13 03:01:13;;;;;;;2.63;2.20;;;13.90;71.10;;;;;;4995044;28;20034;-73
2022/10/13 03:03:39;;;;;;;2.17;1.80;;;13.90;71.70;;;;;;4994640;28;20038;-71
2022/10/13 03:06:06;;;;;;;2.50;2.10;;;13.90;71.20;;;;;;4992138;28;20031;-73
2022/10/13 03:08:33;;;;;;;1.92;1.70;;;13.90;71.20;;;;;;4993384;28;20401;-73
2022/10/13 03:11:01;;;;;;;3.05;1.70;;;13.90;71.20;;;;;;4991670;28;20060;-73
2022/10/13 03:13:28;;;;;;;2.55;1.90;;;13.90;71.20;;;;;;4992851;28;20034;-72
2022/10/13 03:15:59;;;;;;;1.75;1.65;;;13.90;71.20;;;;;;4988928;28;20036;-72
2022/10/13 03:18:25;;;;;;;1.58;1.48;;;13.90;71.20;;;;;;4992231;28;20219;-71
2022/10/13 03:20:59;;;;;;;2.58;1.50;;;13.90;71.20;;;;;;4988138;28;20304;-73
2022/10/13 03:23:26;;;;;;;2.30;2.10;;;13.80;71.10;;;;;;4987898;28;20037;-72
2022/10/13 03:25:53;;;;;;;1.98;1.50;;;13.80;71.10;;;;;;4989725;28;20274;-73
2022/10/13 03:28:20;;;;;;;1.85;1.50;;;13.80;71.10;;;;;;4988848;28;20034;-73
2022/10/13 03:30:58;;;;;;;2.72;1.55;;;13.80;71.10;;;;;;4990382;28;20073;-73
2022/10/13 03:33:24;;;;;;;2.05;1.85;;;13.80;71.10;;;;;;4994539;28;20043;-73
2022/10/13 03:36:03;;;;;;;1.70;1.60;;;13.80;71.10;;;;;;5008332;28;20046;-73
2022/10/13 03:38:31;;;;;;;1.63;1.52;;;13.80;71.10;;;;;;4991892;28;20030;-72
2022/10/13 03:40:57;;;;;;;1.88;1.67;;;13.70;70.90;;;;;;4986042;28;20030;-72
2022/10/13 03:43:24;;;;;;;2.03;1.50;;;13.70;70.90;;;;;;4992760;28;20038;-73
2022/10/13 03:46:03;;;;;;;1.90;1.70;;;13.70;71.00;;;;;;4992381;28;20026;-72
2022/10/13 03:48:29;;;;;;;1.73;1.50;;;13.70;71.10;;;;;;4987186;28;20054;-72
2022/10/13 03:50:55;;;;;;;1.65;1.55;;;13.60;70.90;;;;;;4987778;28;20043;-73
2022/10/13 03:53:21;;;;;;;2.05;1.50;;;13.60;71.00;;;;;;4991374;28;20027;-72
2022/10/13 03:55:49;;;;;;;2.15;1.95;;;13.60;70.90;;;;;;4974090;28;20034;-72
2022/10/13 03:58:15;;;;;;;1.50;1.40;;;13.60;70.90;;;;;;4985818;28;20033;-75
2022/10/13 04:00:41;;;;;;;1.83;1.20;;;13.50;70.80;;;;;;4998641;28;20022;-74
2022/10/13 04:03:07;;;;;;;3.05;1.40;;;13.50;70.80;;;;;;4989727;28;20101;-72
2022/10/13 04:05:33;;;;;;;2.35;2.10;;;13.50;70.80;;;;;;4987460;28;20018;-74
2022/10/13 04:07:59;;;;;;;1.38;1.25;;;13.50;70.90;;;;;;4990107;28;20030;-72
2022/10/13 04:10:27;;;;;;;1.30;1.20;;;13.40;70.70;;;;;;4991811;28;20057;-73
2022/10/13 04:12:53;;;;;;;1.35;1.13;;;13.40;71.20;;;;;;4973679;28;20038;-72
2022/10/13 04:15:20;;;;;;;1.30;1.20;;;13.40;70.70;;;;;;4977236;28;20034;-74
2022/10/13 04:17:48;;;;;;;1.73;1.63;;;13.40;70.70;;;;;;4994489;28;20459;-72
2022/10/13 04:20:14;;;;;;;1.48;1.38;;;13.40;70.80;;;;;;4990133;28;20048;-72
2022/10/13 04:22:40;;;;;;;1.33;1.23;;;13.40;70.80;;;;;;4997222;28;20034;-72
2022/10/13 04:25:06;;;;;;;1.42;1.13;;;13.40;70.80;;;;;;4992084;28;20068;-73
2022/10/13 04:27:37;;;;;;;1.95;1.45;;;13.30;70.60;;;;;;4985356;28;20026;-71
2022/10/13 04:30:05;;;;;;;1.58;1.33;;;13.40;70.80;;;;;;4988301;28;20031;-73
2022/10/13 04:32:32;;;;;;;1.90;1.60;;;13.30;70.60;;;;;;4989486;28;20038;-72
2022/10/13 04:35:03;;;;;;;1.60;1.38;;;13.30;70.70;;;;;;4991385;28;20038;-73
2022/10/13 04:37:33;;;;;;;1.75;1.65;;;13.30;70.60;;;;;;4989140;28;20042;-72
2022/10/13 04:40:00;;;;;;;1.73;1.35;;;13.30;70.70;;;;;;4991563;28;20026;-71
2022/10/13 04:42:26;;;;;;;1.65;1.55;;;13.30;70.70;;;;;;4997124;28;20430;-72
2022/10/13 04:44:54;;;;;;;1.63;1.52;;;13.30;70.70;;;;;;4985243;28;20104;-73
2022/10/13 04:47:20;;;;;;;1.77;1.67;;;13.30;70.70;;;;;;4980242;28;20111;-72
2022/10/13 04:49:46;;;;;;;1.50;1.30;;;13.20;70.50;;;;;;4982223;28;20046;-72
2022/10/13 04:52:11;;;;;;;1.38;1.17;;;13.20;70.60;;;;;;4984438;28;20970;-72
2022/10/13 04:54:37;;;;;;;1.50;1.40;;;13.20;70.60;;;;;;4990538;28;20034;-73
2022/10/13 04:57:03;;;;;;;1.48;1.38;;;13.20;70.60;;;;;;4986784;28;20030;-73
2022/10/13 04:59:29;;;;;;;1.63;1.15;;;13.20;70.60;;;;;;4985539;28;20030;-73
2022/10/13 05:01:57;;;;;;;2.17;1.38;;;13.20;70.70;;;;;;4994046;28;20033;-72
2022/10/13 05:04:23;;;;;;;1.40;1.23;;;13.10;70.60;;;;;;4970931;28;20082;-74
2022/10/13 05:06:48;;;;;;;1.60;1.35;;;13.10;70.70;;;;;;4987892;28;20303;-76
2022/10/13 05:09:15;;;;;;;1.52;1.42;;;13.10;70.60;;;;;;4984867;28;20053;-74
2022/10/13 05:11:41;;;;;;;1.17;1.13;;;13.00;70.50;;;;;;4981995;28;20027;-73
2022/10/13 05:14:07;;;;;;;1.63;1.40;;;13.00;70.50;;;;;;4987273;28;20453;-74
2022/10/13 05:16:33;;;;;;;1.27;1.17;;;13.00;70.60;;;;;;4985412;28;20505;-74
2022/10/13 05:19:02;;;;;;;1.23;1.13;;;13.00;70.60;;;;;;4980993;28;20104;-76
2022/10/13 05:21:29;;;;;;;1.10;1.00;;;12.90;70.50;;;;;;4976924;28;20042;-74
2022/10/13 05:23:59;;;;;;;2.05;1.35;;;12.90;70.50;;;;;;4982738;28;20473;-77
2022/10/13 05:26:27;;;;;;;1.38;1.27;;;12.90;70.50;;;;;;4987977;28;20031;-75
2022/10/13 05:29:01;;;;;;;1.05;1.05;;;12.90;70.50;;;;;;4976587;28;20041;-73
2022/10/13 05:31:31;;;;;;;1.02;1.00;;;12.80;70.30;;;;;;4986032;28;20030;-74
2022/10/13 05:34:00;;;;;;;1.10;1.00;;;12.80;70.30;;;;;;4988013;28;20446;-74
2022/10/13 05:36:31;;;;;;;1.35;1.00;;;12.80;70.30;;;;;;5006996;28;20475;-75
2022/10/13 05:39:00;;;;;;;1.13;1.00;;;12.70;70.10;;;;;;4988595;28;20056;-72
2022/10/13 05:41:27;;;;;;;1.38;0.80;;;12.70;70.10;;;;;;4988972;28;20402;-76
2022/10/13 05:43:57;;;;;;;1.13;1.00;;;12.60;69.90;;;;;;4984368;28;20046;-72
2022/10/13 05:46:23;;;;;;;0.93;0.90;;;12.50;69.80;;;;;;4986231;28;20293;-74
2022/10/13 05:48:50;;;;;;;1.77;1.15;;;12.50;69.80;;;;;;4988069;28;20130;-74
2022/10/13 05:51:23;;;;;;;1.27;1.17;;;12.40;69.60;;;;;;4986201;28;20038;-74
2022/10/13 05:54:13;;;;;;;1.30;1.20;;;12.40;69.70;;;;;;4981504;28;20034;-75
2022/10/13 05:56:45;;;;;;;1.10;1.00;;;12.30;69.50;;;;;;4984410;28;20065;-73
2022/10/13 05:59:13;;;;;;;;;;;12.30;69.70;;;;;;4996913;28;20037;-73
2022/10/13 06:01:41;;;;;;;2.08;1.50;;;12.30;69.80;;;;;;4992570;28;20307;-73
2022/10/13 06:04:16;;;;;;;1.85;1.70;;;12.20;69.50;;;;;;4982365;28;20451;-73
2022/10/13 06:06:43;;;;;;;1.90;1.70;;;12.20;69.70;;;;;;4992722;28;20033;-72
2022/10/13 06:09:09;;;;;;;1.95;1.80;;;12.20;69.80;;;;;;4987761;28;20046;-73
2022/10/13 06:11:35;;;;;;;1.85;1.75;;;12.20;70.30;;;;;;4970206;28;20026;-74
2022/10/13 06:14:01;;;;;;;2.88;1.75;;;12.20;70.20;;;;;;4996857;28;20521;-72
2022/10/13 06:16:27;;;;;;;1.48;1.38;;;12.10;70.20;;;;;;4985443;28;20034;-72
2022/10/13 06:18:54;;;;;;;2.00;1.80;;;12.10;70.40;;;;;;4983095;28;20045;-72
2022/10/13 06:21:20;;;;;;;2.72;1.90;;;12.10;70.60;;;;;;4983416;28;20514;-72
2022/10/13 06:23:47;;;;;;;2.63;2.10;;;12.10;70.70;;;;;;4986025;28;20057;-74
2022/10/13 06:26:13;;;;;;;1.95;1.80;;;12.10;70.70;;;;;;4986349;28;20046;-73
2022/10/13 06:28:39;;;;;;;2.10;1.92;;;12.10;70.80;;;;;;4983813;28;20042;-73
2022/10/13 06:31:05;;;;;;;3.22;2.22;;;12.20;71.60;;;;;;4985031;28;20467;-72
2022/10/13 06:33:31;;;;;;;2.22;2.03;;;12.20;71.10;;;;;;4985468;28;20030;-73
2022/10/13 06:36:03;;;;;;;2.50;2.10;;;12.20;71.20;;;;;;4985811;28;20042;-72
2022/10/13 06:38:31;;;;;;;3.08;1.88;;;12.20;71.20;;;;;;4985088;28;20038;-72
2022/10/13 06:41:03;;;;;;;2.60;1.90;;;12.30;71.30;;;;;;4984633;28;20242;-73
2022/10/13 06:43:32;;;;;;;2.55;1.65;;;12.30;71.40;;;;;;4975546;28;20051;-73
2022/10/13 06:46:03;;;;;;;1.77;1.67;;;12.30;71.40;;;;;;4983808;28;20406;-75
2022/10/13 06:48:31;;;;;;;3.50;1.75;;;12.40;71.60;;;;;;4987715;28;20046;-74
2022/10/13 06:51:03;;;;;;;1.80;1.55;;;12.40;71.60;;;;;;4985949;28;20038;-75
2022/10/13 06:53:29;;;;;;;1.70;1.60;;;12.40;71.70;;;;;;4986172;28;20347;-75
2022/10/13 06:55:58;;;;;;;2.00;1.80;;;12.40;71.70;;;;;;4984996;28;20026;-74
2022/10/13 06:58:25;;;;;;;2.55;1.50;;;12.40;71.70;;;;;;4986696;28;20213;-75
2022/10/13 07:00:52;;;;;;;2.58;1.60;;;12.50;71.90;;;;;;4987837;28;20060;-74
2022/10/13 07:03:20;;;;;;;2.15;2.00;;;12.50;71.90;;;;;;4987203;28;20046;-74
2022/10/13 07:05:46;;;;;;;1.60;1.50;;;12.50;71.80;;;;;;4986252;28;20034;-74
2022/10/13 07:08:12;;;;;;;2.38;1.60;;;12.60;72.00;;;;;;4985955;28;20034;-74
2022/10/13 07:10:40;;;;;;;3.92;1.80;;;12.60;72.00;;;;;;4986952;28;20508;-72
2022/10/13 07:13:07;;;;;;;2.33;1.90;;;12.60;72.00;;;;;;4985371;28;20049;-71
2022/10/13 07:15:37;;;;;;;1.90;1.80;;;12.70;72.10;;;;;;4988252;28;20034;-73
2022/10/13 07:18:03;;;;;;;2.78;1.92;;;12.70;72.10;;;;;;4990113;28;20040;-75
2022/10/13 07:20:29;;;;;;;3.10;1.90;;;12.70;72.00;;;;;;4980215;28;20023;-73
2022/10/13 07:22:56;;;;;;;2.10;1.90;;;12.80;72.10;;;;;;4984925;28;20056;-73
2022/10/13 07:25:25;;;;;;;2.70;2.25;;;12.80;72.00;;;;;;4987442;28;20035;-73
2022/10/13 07:27:51;;;;;;;2.40;2.20;;;12.90;72.10;;;;;;4989130;28;20037;-73
2022/10/13 07:30:17;;;;;;;3.30;2.38;;;12.90;72.20;;;;;;4988719;28;20042;-74
2022/10/13 07:32:47;;;;;;;3.58;2.42;;;12.90;72.10;;;;;;4987813;28;20037;-73
2022/10/13 07:35:12;;;;;;;3.15;2.25;;;13.00;72.20;;;;;;4987946;28;20038;-73
2022/10/13 07:37:38;;;;;;;3.80;2.35;;;13.00;72.10;;;;;;4986786;28;20532;-74
2022/10/13 07:40:05;;;;;;;2.45;2.25;;;13.10;72.30;;;;;;4978600;28;20030;-74
2022/10/13 07:42:32;;;;;;;5.45;2.40;;;13.10;72.20;;;;;;4987757;28;20382;-74
2022/10/13 07:44:58;;;;;;;4.38;2.67;;;13.10;72.10;;;;;;4983048;28;20031;-73
2022/10/13 07:47:28;;;;;;;2.40;2.20;;;13.20;72.30;;;;;;4989460;28;20030;-72
2022/10/13 07:49:55;;;;;;;3.78;2.67;;;13.30;72.50;;;;;;4988718;28;20061;-74
2022/10/13 07:52:21;;;;;;;7.13;4.03;;;13.30;72.40;;;;;;4972451;28;20446;-74
2022/10/13 07:54:47;;;;;;;3.63;2.55;;;13.40;72.50;;;;;;4972159;28;20247;-75
2022/10/13 07:57:14;;;;;;;3.85;2.92;;;13.40;72.50;;;;;;4989078;28;20516;-75
2022/10/13 07:59:40;;;;;;;3.53;2.50;;;13.50;72.60;;;;;;4989511;28;20038;-74
2022/10/13 08:02:09;;;;;;;3.58;3.20;;;13.60;72.70;;;;;;4971467;28;20294;-72
2022/10/13 08:04:35;;;;;;;3.92;3.53;;;13.70;72.80;;;;;;4989672;28;20036;-75
2022/10/13 08:07:02;;;;;;;4.93;3.50;;;13.70;72.70;;;;;;4989825;28;20030;-72
2022/10/13 08:09:28;;;;;;;4.32;3.13;;;13.80;72.80;;;;;;4991164;28;20118;-73
2022/10/13 08:11:58;;;;;;;7.25;3.90;;;13.90;72.90;;;;;;4989224;28;20457;-73
2022/10/13 08:14:26;;;;;;;8.75;4.82;;;14.00;73.00;;;;;;4989972;28;20041;-72
2022/10/13 08:16:52;;;;;;;6.72;4.57;;;14.00;72.90;;;;;;4990956;28;20394;-74
2022/10/13 08:19:20;;;;;;;4.55;4.15;;;14.10;73.50;;;;;;4994835;28;20639;-73
2022/10/13 08:21:48;;;;;;;8.23;4.40;;;14.20;73.10;;;;;;4989004;28;20402;-74
2022/10/13 08:24:16;;;;;;;5.75;4.15;;;14.30;73.20;;;;;;4991041;28;20050;-74
2022/10/13 08:26:43;;;;;;;5.47;4.88;;;14.30;73.00;;;;;;4990490;28;20026;-73
2022/10/13 08:29:10;;;;;;;5.38;4.40;;;14.40;73.10;;;;;;4989135;28;20030;-74
2022/10/13 08:31:38;;;;;;;10.43;5.38;;;14.60;73.30;;;;;;5005358;28;20056;-73
2022/10/13 08:34:04;;;;;;;6.72;5.05;;;14.60;73.20;;;;;;4989608;28;20029;-75
2022/10/13 08:36:30;;;;;;;8.10;5.80;;;14.70;73.20;;;;;;4989052;28;20034;-74
2022/10/13 08:38:56;;;;;;;7.97;5.55;;;14.80;73.20;;;;;;4992644;28;20386;-72
2022/10/13 08:41:34;;;;;;;4.93;4.35;;;14.90;73.30;;;;;;4989744;28;20034;-74
2022/10/13 08:44:09;;;;;;;8.43;4.93;;;15.00;73.20;;;;;;4984388;28;20062;-75
2022/10/13 08:46:40;;;;;;;;;;;15.10;73.20;;;;;;4987353;28;20053;-75
2022/10/13 08:49:07;;;;;;;8.27;5.25;;;15.30;73.80;;;;;;4988370;28;19926;-77
2022/10/13 08:51:33;;;;;;;5.32;4.82;;;15.40;73.00;;;;;;4984389;28;20042;-74
2022/10/13 08:54:00;;;;;;;17.23;6.30;;;15.40;72.90;;;;;;4988739;28;20034;-75
2022/10/13 08:56:34;;;;;;;8.07;5.65;;;15.50;73.00;;;;;;4987977;28;20408;-74
2022/10/13 08:59:03;;;;;;;6.90;4.90;;;15.60;73.10;;;;;;4990048;28;20097;-73
2022/10/13 09:01:34;;;;;;;10.57;6.18;;;15.70;73.10;;;;;;4988313;28;20039;-72
2022/10/13 09:04:22;;;;;;;8.07;5.35;;;15.80;73.10;;;;;;4984221;28;20046;-74
2022/10/13 09:06:57;;;;;;;6.65;5.15;;;15.90;73.10;;;;;;4990969;28;20101;-76
2022/10/13 09:09:23;;;;;;;6.45;5.65;;;16.00;73.10;;;;;;4984418;28;20139;-74
2022/10/13 09:11:50;;;;;;;7.40;5.15;;;16.20;73.30;;;;;;4985171;28;20148;-75
2022/10/13 09:14:27;;;;;;;8.60;5.60;;;16.30;73.20;;;;;;4990324;28;20281;-74
2022/10/13 09:17:12;;;;;;;8.80;5.70;;;16.50;73.20;;;;;;4988152;28;20069;-73
2022/10/13 09:19:39;;;;;;;9.50;5.63;;;16.60;73.00;;;;;;4990902;28;20026;-74
2022/10/13 09:22:24;;;;;;;9.63;5.53;;;16.80;73.00;;;;;;4986042;28;20040;-73
2022/10/13 09:25:10;;;;;;;7.70;5.43;;;16.90;72.80;;;;;;4984447;28;20049;-74
2022/10/13 09:27:51;;;;;;;8.30;5.95;;;17.00;72.60;;;;;;4987142;28;20468;-74
2022/10/13 09:30:26;;;;;;;7.43;6.43;;;17.10;72.60;;;;;;5011219;28;20821;-74
2022/10/13 09:33:20;;;;;;;10.05;6.53;;;17.10;72.40;;;;;;4998301;28;20034;-74
2022/10/13 09:35:48;;;;;;;9.20;6.28;;;17.20;72.40;;;;;;4990226;28;20502;-74
2022/10/13 09:38:16;;;;;;;10.52;6.72;;;17.30;72.60;;;;;;4993394;28;20042;-74
2022/10/13 09:41:02;;;;;;;11.52;7.28;;;17.40;72.50;;;;;;4984733;28;20161;-74
2022/10/13 09:43:31;;;;;;;8.00;6.72;;;17.50;72.30;;;;;;4979654;28;20049;-74
2022/10/13 09:45:59;;;;;;;11.10;7.53;;;17.70;72.30;;;;;;4989682;28;20402;-74
2022/10/13 09:48:30;;;;;;;9.90;7.68;;;17.80;72.00;;;;;;4989404;28;20536;-73
2022/10/13 09:51:01;;;;;;;14.55;8.45;;;17.90;71.80;;;;;;4983664;28;20039;-73
2022/10/13 09:53:34;;;;;;;10.30;7.47;;;18.00;71.80;;;;;;4984760;28;20061;-73
2022/10/13 09:56:25;;;;;;;12.45;8.90;;;18.00;71.60;;;;;;4988849;28;20033;-73
2022/10/13 09:59:36;;;;;;;12.02;8.27;;;18.00;71.50;;;;;;4985408;28;20034;-74
2022/10/13 10:02:22;;;;;;;12.15;10.18;;;18.00;71.60;;;;;;4940856;28;20397;-73
2022/10/13 10:04:50;;;;;;;11.27;8.82;;;17.90;71.50;;;;;;4950470;28;20040;-72
2022/10/13 10:07:26;;;;;;;10.90;9.63;;;17.80;71.50;;;;;;4964973;28;20132;-75
2022/10/13 10:10:03;;;;;;;14.25;10.95;;;17.70;71.30;;;;;;4989943;28;20066;-73
2022/10/13 10:12:33;;;;;;;11.98;10.70;;;17.60;71.30;;;;;;4972118;28;20039;-73
2022/10/13 10:15:00;;;;;;;13.85;9.88;;;17.50;71.20;;;;;;4983359;28;20436;-75
2022/10/13 10:18:07;;;;;;;14.50;9.65;;;17.50;71.40;;;;;;4987506;28;20042;-73
2022/10/13 10:21:02;;;;;;;14.23;10.85;;;17.40;71.20;;;;;;4950904;28;20039;-74
2022/10/13 10:23:42;;;;;;;13.75;9.77;;;17.40;71.20;;;;;;4967035;28;20548;-73
2022/10/13 10:26:17;;;;;;;10.52;9.05;;;17.40;71.10;;;;;;4979685;28;20034;-72
2022/10/13 10:29:03;;;;;;;13.35;9.10;;;17.40;71.00;;;;;;4989556;28;20065;-72
2022/10/13 10:31:52;;;;;;;11.60;10.10;;;17.50;71.00;;;;;;4989598;28;20038;-72
2022/10/13 10:34:39;;;;;;;13.27;11.30;;;17.40;70.40;;;;;;4983764;28;20486;-73
2022/10/13 10:37:19;;;;;;;14.60;10.00;;;17.50;70.30;;;;;;4986570;28;20250;-73
2022/10/13 10:40:06;;;;;;;13.98;10.55;;;17.50;70.20;;;;;;4990681;28;20045;-74
2022/10/13 10:42:43;;;;;;;12.93;10.23;;;17.50;70.10;;;;;;4986349;28;20232;-75
2022/10/13 10:45:24;;;;;;;15.07;10.60;;;17.40;69.90;;;;;;4982081;28;20184;-73
2022/10/13 10:47:55;;;;;;;14.50;10.30;;;17.40;69.80;;;;;;4981109;28;20035;-74
2022/10/13 10:50:23;;;;;;;11.85;10.20;;;17.30;69.60;;;;;;4985286;28;20042;-75
2022/10/13 10:53:05;;;;;;;16.38;11.40;;;17.30;69.60;;;;;;4986919;28;20042;-73
2022/10/13 10:55:39;;;;;;;13.75;10.27;;;17.30;69.40;;;;;;5011059;28;20038;-73
2022/10/13 10:58:12;;;;;;;17.58;11.10;;;17.30;69.40;;;;;;4993595;28;20121;-76
2022/10/13 11:00:48;;;;;;;13.40;10.45;;;17.30;69.30;;;;;;4996061;28;20113;-75
2022/10/13 11:03:28;;;;;;;14.43;11.30;;;17.40;69.30;;;;;;4989365;28;20428;-75
2022/10/13 11:06:04;;;;;;;15.40;11.30;;;17.40;69.20;;;;;;4989004;28;20042;-74
2022/10/13 11:08:36;;;;;;;14.48;11.50;;;17.40;69.00;;;;;;4979800;28;20031;-75
2022/10/13 11:11:21;;;;;;;14.75;9.30;;;17.40;68.90;;;;;;4971687;28;20031;-74
2022/10/13 11:14:12;;;;;;;13.65;11.18;;;17.30;68.60;;;;;;4988857;28;20108;-75
2022/10/13 11:17:04;;;;;;;16.55;11.95;;;17.30;68.70;;;;;;4975785;28;20045;-72
2022/10/13 11:19:33;;;;;;;14.63;9.60;;;17.30;68.60;;;;;;4987113;28;20034;-73
2022/10/13 11:22:09;;;;;;;16.55;11.18;;;17.30;68.70;;;;;;4984682;28;20057;-73
2022/10/13 11:24:40;;;;;;;12.88;9.48;;;17.20;68.50;;;;;;4996098;28;20042;-73
2022/10/13 11:27:13;;;;;;;18.67;11.55;;;17.20;68.40;;;;;;4991817;28;20023;-75
2022/10/13 11:29:45;;;;;;;14.95;10.73;;;17.20;68.30;;;;;;4982288;28;20031;-75
2022/10/13 11:32:40;;;;;;;14.25;10.23;;;17.30;68.30;;;;;;4991700;28;20015;-74
2022/10/13 11:35:09;;;;;;;15.80;9.27;;;17.30;68.10;;;;;;4973932;28;20081;-75
2022/10/13 11:37:56;;;;;;;13.57;9.00;;;17.30;68.10;;;;;;4986676;28;20039;-74
2022/10/13 11:40:46;;;;;;;12.50;9.68;;;17.30;67.90;;;;;;4994876;28;20037;-75
2022/10/13 11:43:34;;;;;;;13.27;8.98;;;17.40;67.80;;;;;;4992225;28;20109;-73
2022/10/13 11:46:03;;;;;;;12.98;9.40;;;17.40;67.70;;;;;;4984213;28;20023;-75
2022/10/13 11:48:50;;;;;;;13.10;9.82;;;17.50;67.90;;;;;;4994382;28;20501;-76
2022/10/13 11:51:38;;;;;;;10.75;9.55;;;17.50;67.70;;;;;;4994551;28;20042;-76
2022/10/13 11:54:30;;;;;;;14.13;10.05;;;17.60;67.70;;;;;;4989609;28;20109;-74
2022/10/13 11:56:57;;;;;;;15.20;9.70;;;17.60;67.50;;;;;;4984181;28;20038;-75
2022/10/13 11:59:38;;;;;;;13.63;9.63;;;17.70;67.50;;;;;;4980154;28;20030;-76
2022/10/13 12:02:15;;;;;;;14.25;9.85;;;17.80;67.50;;;;;;4986366;28;20031;-75
2022/10/13 12:04:46;;;;;;;13.15;10.10;;;17.80;67.30;;;;;;4987997;28;20038;-73
2022/10/13 12:07:16;;;;;;;13.50;9.57;;;17.90;67.30;;;;;;4988568;28;20028;-74
2022/10/13 12:09:56;;;;;;;12.88;8.80;;;18.00;67.20;;;;;;4989990;28;20077;-76
2022/10/13 12:12:24;;;;;;;11.85;8.25;;;18.00;67.00;;;;;;4974007;28;20544;-74
2022/10/13 12:14:55;;;;;;;11.52;7.18;;;18.00;66.90;;;;;;4992315;28;20040;-76
2022/10/13 12:17:22;;;;;;;9.07;6.22;;;18.00;66.70;;;;;;4990379;28;20033;-77
2022/10/13 12:19:49;;;;;;;7.57;6.25;;;18.10;66.80;;;;;;4972934;28;20505;-76
2022/10/13 12:22:15;;;;;;;11.18;6.93;;;18.10;66.60;;;;;;4984380;28;20026;-75
2022/10/13 12:24:41;;;;;;;11.50;6.85;;;18.00;66.30;;;;;;4991060;28;20034;-75
2022/10/13 12:27:19;;;;;;;10.60;6.18;;;18.00;66.10;;;;;;4989523;28;20038;-76
2022/10/13 12:29:46;;;;;;;10.70;6.25;;;18.00;66.00;;;;;;4987920;28;20341;-76
2022/10/13 12:32:28;;;;;;;10.95;7.15;;;18.00;65.90;;;;;;4994130;28;20053;-73
2022/10/13 12:34:54;;;;;;;12.50;6.35;;;17.90;65.70;;;;;;4987333;28;20050;-74
2022/10/13 12:37:29;;;;;;;8.88;5.68;;;17.90;65.80;;;;;;4992031;28;20026;-73
2022/10/13 12:39:57;;;;;;;8.97;5.83;;;17.90;65.80;;;;;;4986850;28;20721;-74
2022/10/13 12:42:30;;;;;;;12.07;6.47;;;17.90;65.80;;;;;;4989431;28;20394;-75
2022/10/13 12:45:01;;;;;;;12.27;6.15;;;17.90;65.70;;;;;;4991130;28;20045;-74
2022/10/13 12:47:38;;;;;;;11.30;5.38;;;17.90;65.60;;;;;;4992802;28;20445;-75
2022/10/13 12:50:22;;;;;;;8.05;4.60;;;18.00;65.60;;;;;;4986942;28;20109;-76
2022/10/13 12:52:54;;;;;;;7.10;5.22;;;18.00;65.40;;;;;;4986880;28;20031;-74
2022/10/13 12:55:22;;;;;;;11.63;5.93;;;18.10;65.50;;;;;;4990730;28;20026;-73
2022/10/13 12:57:50;;;;;;;8.15;5.07;;;18.20;65.50;;;;;;4972915;28;20521;-75
2022/10/13 13:00:27;;;;;;;6.63;4.68;;;18.20;65.30;;;;;;4990564;28;20038;-74
2022/10/13 13:03:02;;;;;;;10.10;5.00;;;18.30;65.20;;;;;;4991222;28;20046;-75
2022/10/13 13:05:44;;;;;;;5.97;4.30;;;18.40;65.10;;;;;;4989448;28;20035;-75
2022/10/13 13:08:31;;;;;;;6.68;4.05;;;18.50;65.00;;;;;;4989951;28;20046;-73